sensor_id;sensor_type;location;lat;lon;timestamp;pressure;altitude;pressure_sealevel;temperature;humidity
58879;BME280;44660;42.664;23.266;2022-08-21T14:23:45;93758.47;;;26.00;51.23
58879;BME280;44660;42.664;23.266;2022-08-21T14:26:10;93751.72;;;25.90;52.90
58879;BME280;44660;42.664;23.266;2022-08-21T14:28:40;93762.44;;;25.83;55.07
58879;BME280;44660;42.664;23.266;2022-08-21T14:31:20;93770.81;;;25.74;55.79
58879;BME280;44660;42.664;23.266;2022-08-21T14:33:46;93762.19;;;25.69;56.11
58879;BME280;44660;42.664;23.266;2022-08-21T14:36:12;93774.56;;;25.66;57.36
58879;BME280;44660;42.664;23.266;2022-08-21T14:38:39;93775.78;;;25.69;57.60
58879;BME280;44660;42.664;23.266;2022-08-21T14:41:16;93740.75;;;25.32;59.95
58879;BME280;44660;42.664;23.266;2022-08-21T14:43:43;93754.34;;;25.32;60.63
58879;BME280;44660;42.664;23.266;2022-08-21T14:46:09;93779.56;;;25.45;61.18
58879;BME280;44660;42.664;23.266;2022-08-21T14:48:35;93772.09;;;25.41;59.99
58879;BME280;44660;42.664;23.266;2022-08-21T14:51:01;93706.59;;;24.95;60.97
58879;BME280;44660;42.664;23.266;2022-08-21T14:53:26;93757.16;;;25.35;61.35
58879;BME280;44660;42.664;23.266;2022-08-21T14:55:52;93726.34;;;25.12;60.78
58879;BME280;44660;42.664;23.266;2022-08-21T14:58:35;93742.69;;;25.12;60.86
58879;BME280;44660;42.664;23.266;2022-08-21T15:01:01;93764.16;;;25.17;61.41
58879;BME280;44660;42.664;23.266;2022-08-21T15:03:29;93736.63;;;25.02;62.41
58879;BME280;44660;42.664;23.266;2022-08-21T15:05:55;93734.44;;;24.92;61.85
58879;BME280;44660;42.664;23.266;2022-08-21T15:08:20;93729.19;;;24.83;60.98
58879;BME280;44660;42.664;23.266;2022-08-21T15:10:46;93737.00;;;24.85;61.98
58879;BME280;44660;42.664;23.266;2022-08-21T15:13:11;93718.97;;;24.76;63.71
58879;BME280;44660;42.664;23.266;2022-08-21T15:15:41;93715.97;;;24.82;64.60
58879;BME280;44660;42.664;23.266;2022-08-21T15:18:07;93696.34;;;24.72;65.05
58879;BME280;44660;42.664;23.266;2022-08-21T15:20:33;93705.38;;;24.76;65.44
58879;BME280;44660;42.664;23.266;2022-08-21T15:22:58;93695.72;;;24.79;64.04
58879;BME280;44660;42.664;23.266;2022-08-21T15:25:24;93692.81;;;24.88;63.94
58879;BME280;44660;42.664;23.266;2022-08-21T15:27:49;93675.38;;;24.89;64.29
58879;BME280;44660;42.664;23.266;2022-08-21T15:30:15;93679.03;;;24.97;63.71
58879;BME280;44660;42.664;23.266;2022-08-21T15:32:40;93691.97;;;25.03;62.86
58879;BME280;44660;42.664;23.266;2022-08-21T15:35:07;93693.44;;;25.17;62.36
58879;BME280;44660;42.664;23.266;2022-08-21T15:37:33;93684.41;;;25.13;61.77
58879;BME280;44660;42.664;23.266;2022-08-21T15:39:58;93681.47;;;25.02;59.00
58879;BME280;44660;42.664;23.266;2022-08-21T15:42:25;93682.78;;;25.08;59.97
58879;BME280;44660;42.664;23.266;2022-08-21T15:44:56;93661.63;;;25.01;59.12
58879;BME280;44660;42.664;23.266;2022-08-21T15:47:27;93685.78;;;25.22;58.93
58879;BME280;44660;42.664;23.266;2022-08-21T15:49:53;93693.94;;;25.38;58.82
58879;BME280;44660;42.664;23.266;2022-08-21T15:52:20;93683.03;;;25.38;58.41
58879;BME280;44660;42.664;23.266;2022-08-21T15:54:46;93696.00;;;25.45;58.32
58879;BME280;44660;42.664;23.266;2022-08-21T15:57:14;93691.63;;;25.40;56.61
58879;BME280;44660;42.664;23.266;2022-08-21T15:59:46;93701.06;;;25.47;56.31
58879;BME280;44660;42.664;23.266;2022-08-21T16:02:21;93692.34;;;25.37;56.90
58879;BME280;44660;42.664;23.266;2022-08-21T16:04:46;93661.69;;;25.21;58.20
58879;BME280;44660;42.664;23.266;2022-08-21T16:07:15;93714.38;;;25.52;56.46
58879;BME280;44660;42.664;23.266;2022-08-21T16:09:41;93720.56;;;25.49;56.57
58879;BME280;44660;42.664;23.266;2022-08-21T16:12:07;93716.75;;;25.53;57.29
58879;BME280;44660;42.664;23.266;2022-08-21T16:14:34;93728.59;;;25.61;56.87
58879;BME280;44660;42.664;23.266;2022-08-21T16:17:04;93735.66;;;25.66;56.31
58879;BME280;44660;42.664;23.266;2022-08-21T16:19:29;93740.16;;;25.58;55.42
58879;BME280;44660;42.664;23.266;2022-08-21T16:21:55;93736.97;;;25.52;55.77
58879;BME280;44660;42.664;23.266;2022-08-21T16:24:21;93741.47;;;25.45;55.27
58879;BME280;44660;42.664;23.266;2022-08-21T16:26:48;93746.47;;;25.26;55.46
58879;BME280;44660;42.664;23.266;2022-08-21T16:29:13;93730.16;;;24.91;55.71
58879;BME280;44660;42.664;23.266;2022-08-21T16:31:42;93753.78;;;25.06;56.52
58879;BME280;44660;42.664;23.266;2022-08-21T16:34:12;93740.41;;;24.98;57.34
58879;BME280;44660;42.664;23.266;2022-08-21T16:36:40;93691.88;;;24.64;58.03
58879;BME280;44660;42.664;23.266;2022-08-21T16:39:05;93760.81;;;25.07;58.02
58879;BME280;44660;42.664;23.266;2022-08-21T16:41:33;93745.78;;;24.78;58.07
58879;BME280;44660;42.664;23.266;2022-08-21T16:43:59;93742.81;;;24.67;59.25
58879;BME280;44660;42.664;23.266;2022-08-21T16:46:26;93734.56;;;24.64;60.31
58879;BME280;44660;42.664;23.266;2022-08-21T16:48:53;93706.50;;;24.43;60.23
58879;BME280;44660;42.664;23.266;2022-08-21T16:51:19;93746.31;;;24.68;60.19
58879;BME280;44660;42.664;23.266;2022-08-21T16:53:44;93748.03;;;24.60;60.37
58879;BME280;44660;42.664;23.266;2022-08-21T16:56:11;93757.16;;;24.52;61.99
58879;BME280;44660;42.664;23.266;2022-08-21T16:58:40;93696.16;;;24.01;61.90
58879;BME280;44660;42.664;23.266;2022-08-21T17:01:11;93747.94;;;24.24;61.97
58879;BME280;44660;42.664;23.266;2022-08-21T17:03:40;93767.09;;;24.16;62.58
58879;BME280;44660;42.664;23.266;2022-08-21T17:06:07;93782.94;;;24.13;63.00
58879;BME280;44660;42.664;23.266;2022-08-21T17:08:34;93786.16;;;24.03;62.74
58879;BME280;44660;42.664;23.266;2022-08-21T17:11:00;93765.66;;;23.77;63.79
58879;BME280;44660;42.664;23.266;2022-08-21T17:13:27;93699.63;;;23.29;63.53
58879;BME280;44660;42.664;23.266;2022-08-21T17:15:54;93769.53;;;23.64;64.53
58879;BME280;44660;42.664;23.266;2022-08-21T17:18:21;93807.16;;;23.78;65.21
58879;BME280;44660;42.664;23.266;2022-08-21T17:20:47;93804.56;;;23.69;65.61
58879;BME280;44660;42.664;23.266;2022-08-21T17:23:14;93774.72;;;23.41;66.19
58879;BME280;44660;42.664;23.266;2022-08-21T17:25:43;93809.59;;;23.55;66.19
58879;BME280;44660;42.664;23.266;2022-08-21T17:28:13;93808.72;;;23.51;67.07
58879;BME280;44660;42.664;23.266;2022-08-21T17:30:40;93789.09;;;23.29;66.99
58879;BME280;44660;42.664;23.266;2022-08-21T17:33:11;93814.38;;;23.33;67.14
58879;BME280;44660;42.664;23.266;2022-08-21T17:35:37;93783.66;;;23.04;67.52
58879;BME280;44660;42.664;23.266;2022-08-21T17:38:02;93810.09;;;23.20;68.42
58879;BME280;44660;42.664;23.266;2022-08-21T17:40:28;93823.06;;;23.14;68.50
58879;BME280;44660;42.664;23.266;2022-08-21T17:42:55;93816.88;;;23.01;68.99
58879;BME280;44660;42.664;23.266;2022-08-21T17:45:21;93816.16;;;22.92;69.40
58879;BME280;44660;42.664;23.266;2022-08-21T17:47:47;93838.44;;;22.97;69.21
58879;BME280;44660;42.664;23.266;2022-08-21T17:50:14;93838.31;;;22.94;69.27
58879;BME280;44660;42.664;23.266;2022-08-21T17:52:40;93844.88;;;22.80;69.01
58879;BME280;44660;42.664;23.266;2022-08-21T17:55:10;93847.00;;;22.87;70.44
58879;BME280;44660;42.664;23.266;2022-08-21T17:57:36;93830.38;;;22.76;70.61
58879;BME280;44660;42.664;23.266;2022-08-21T18:00:04;93849.13;;;22.81;70.93
58879;BME280;44660;42.664;23.266;2022-08-21T18:02:30;93851.28;;;22.76;70.46
58879;BME280;44660;42.664;23.266;2022-08-21T18:04:55;93850.69;;;22.70;70.33
58879;BME280;44660;42.664;23.266;2022-08-21T18:07:21;93862.00;;;22.72;70.08
58879;BME280;44660;42.664;23.266;2022-08-21T18:09:47;93861.66;;;22.74;70.33
58879;BME280;44660;42.664;23.266;2022-08-21T18:12:13;93853.16;;;22.50;70.17
58879;BME280;44660;42.664;23.266;2022-08-21T18:14:39;93860.59;;;22.54;70.71
58879;BME280;44660;42.664;23.266;2022-08-21T18:17:10;93879.34;;;22.59;69.73
58879;BME280;44660;42.664;23.266;2022-08-21T18:19:37;93872.38;;;22.58;69.33
58879;BME280;44660;42.664;23.266;2022-08-21T18:22:03;93869.06;;;22.52;68.90
58879;BME280;44660;42.664;23.266;2022-08-21T18:24:33;93859.81;;;22.32;69.23
58879;BME280;44660;42.664;23.266;2022-08-21T18:26:59;93874.03;;;22.29;69.76
58879;BME280;44660;42.664;23.266;2022-08-21T18:29:25;93883.63;;;22.26;70.18
58879;BME280;44660;42.664;23.266;2022-08-21T18:31:50;93880.44;;;22.24;70.09
58879;BME280;44660;42.664;23.266;2022-08-21T18:36:49;93886.34;;;22.26;69.26
58879;BME280;44660;42.664;23.266;2022-08-21T18:39:14;93883.06;;;22.33;68.79
58879;BME280;44660;42.664;23.266;2022-08-21T18:41:40;93860.25;;;22.22;68.92
58879;BME280;44660;42.664;23.266;2022-08-21T18:44:06;93857.19;;;22.23;68.13
58879;BME280;44660;42.664;23.266;2022-08-21T18:46:31;93867.63;;;22.33;68.72
58879;BME280;44660;42.664;23.266;2022-08-21T18:48:57;93866.50;;;22.34;68.79
58879;BME280;44660;42.664;23.266;2022-08-21T18:51:22;93863.00;;;22.34;68.03
58879;BME280;44660;42.664;23.266;2022-08-21T18:53:48;93880.31;;;22.42;68.72
58879;BME280;44660;42.664;23.266;2022-08-21T18:56:16;93879.53;;;22.41;68.41
58879;BME280;44660;42.664;23.266;2022-08-21T18:58:43;93855.75;;;22.26;68.73
58879;BME280;44660;42.664;23.266;2022-08-21T19:01:08;93856.69;;;22.30;68.12
58879;BME280;44660;42.664;23.266;2022-08-21T19:03:34;93870.66;;;22.32;67.44
58879;BME280;44660;42.664;23.266;2022-08-21T19:05:59;93862.50;;;22.20;67.11
58879;BME280;44660;42.664;23.266;2022-08-21T19:08:25;93859.88;;;22.11;66.51
58879;BME280;44660;42.664;23.266;2022-08-21T19:10:57;93876.75;;;22.29;66.55
58879;BME280;44660;42.664;23.266;2022-08-21T19:13:25;93877.41;;;22.26;66.14
58879;BME280;44660;42.664;23.266;2022-08-21T19:15:53;93852.38;;;21.95;66.20
58879;BME280;44660;42.664;23.266;2022-08-21T19:18:23;93871.19;;;21.92;66.66
58879;BME280;44660;42.664;23.266;2022-08-21T19:20:50;93886.09;;;21.98;67.17
58879;BME280;44660;42.664;23.266;2022-08-21T19:23:17;93876.81;;;21.87;66.71
58879;BME280;44660;42.664;23.266;2022-08-21T19:25:45;93860.75;;;21.81;67.32
58879;BME280;44660;42.664;23.266;2022-08-21T19:28:15;93886.53;;;22.00;66.62
58879;BME280;44660;42.664;23.266;2022-08-21T19:30:47;93887.34;;;22.00;67.12
58879;BME280;44660;42.664;23.266;2022-08-21T19:33:25;93884.66;;;22.00;67.10
58879;BME280;44660;42.664;23.266;2022-08-21T19:35:53;93874.34;;;21.94;66.78
58879;BME280;44660;42.664;23.266;2022-08-21T19:38:19;93886.09;;;21.98;67.48
58879;BME280;44660;42.664;23.266;2022-08-21T19:40:44;93874.09;;;21.87;68.17
58879;BME280;44660;42.664;23.266;2022-08-21T19:43:10;93883.13;;;21.91;67.76
58879;BME280;44660;42.664;23.266;2022-08-21T19:45:36;93888.75;;;21.85;68.54
58879;BME280;44660;42.664;23.266;2022-08-21T19:48:02;93875.13;;;21.73;68.50
58879;BME280;44660;42.664;23.266;2022-08-21T19:50:28;93897.97;;;21.84;68.93
58879;BME280;44660;42.664;23.266;2022-08-21T19:52:53;93856.03;;;21.48;67.50
58879;BME280;44660;42.664;23.266;2022-08-21T19:55:19;93905.81;;;21.56;70.23
58879;BME280;44660;42.664;23.266;2022-08-21T19:57:44;93907.28;;;21.45;70.73
58879;BME280;44660;42.664;23.266;2022-08-21T20:00:11;93908.84;;;21.46;71.29
58879;BME280;44660;42.664;23.266;2022-08-21T20:02:36;93917.59;;;21.43;71.49
58879;BME280;44660;42.664;23.266;2022-08-21T20:05:03;93912.97;;;21.43;72.06
58879;BME280;44660;42.664;23.266;2022-08-21T20:07:30;93905.50;;;21.49;71.70
58879;BME280;44660;42.664;23.266;2022-08-21T20:09:55;93914.50;;;21.62;72.01
58879;BME280;44660;42.664;23.266;2022-08-21T20:12:21;93910.50;;;21.68;71.76
58879;BME280;44660;42.664;23.266;2022-08-21T20:14:47;93906.47;;;21.74;68.83
58879;BME280;44660;42.664;23.266;2022-08-21T20:17:16;93912.03;;;21.78;67.48
58879;BME280;44660;42.664;23.266;2022-08-21T20:19:43;93909.00;;;21.79;67.47
58879;BME280;44660;42.664;23.266;2022-08-21T20:22:09;93894.47;;;21.63;68.84
58879;BME280;44660;42.664;23.266;2022-08-21T20:24:36;93898.09;;;21.37;70.26
58879;BME280;44660;42.664;23.266;2022-08-21T20:27:03;93896.91;;;21.47;70.07
58879;BME280;44660;42.664;23.266;2022-08-21T20:29:29;93890.84;;;21.50;69.73
58879;BME280;44660;42.664;23.266;2022-08-21T20:31:56;93880.81;;;21.50;68.68
58879;BME280;44660;42.664;23.266;2022-08-21T20:34:22;93872.63;;;21.38;69.56
58879;BME280;44660;42.664;23.266;2022-08-21T20:36:47;93883.06;;;21.48;69.97
58879;BME280;44660;42.664;23.266;2022-08-21T20:39:13;93890.72;;;21.46;70.50
58879;BME280;44660;42.664;23.266;2022-08-21T20:41:39;93873.28;;;21.35;70.47
58879;BME280;44660;42.664;23.266;2022-08-21T20:44:07;93870.91;;;21.33;71.08
58879;BME280;44660;42.664;23.266;2022-08-21T20:46:34;93891.81;;;21.45;70.69
58879;BME280;44660;42.664;23.266;2022-08-21T20:49:00;93839.03;;;20.88;71.07
58879;BME280;44660;42.664;23.266;2022-08-21T20:51:34;93895.00;;;21.17;72.65
58879;BME280;44660;42.664;23.266;2022-08-21T20:54:03;93900.88;;;21.19;73.00
58879;BME280;44660;42.664;23.266;2022-08-21T20:56:52;93906.53;;;21.27;73.38
58879;BME280;44660;42.664;23.266;2022-08-21T21:02:05;93919.84;;;21.41;71.53
58879;BME280;44660;42.664;23.266;2022-08-21T21:05:49;93913.31;;;21.42;71.05
58879;BME280;44660;42.664;23.266;2022-08-21T21:07:53;93919.84;;;21.41;70.86
58879;BME280;44660;42.664;23.266;2022-08-21T21:10:42;93891.78;;;21.24;70.02
58879;BME280;44660;42.664;23.266;2022-08-21T21:13:37;93929.03;;;21.48;69.53
58879;BME280;44660;42.664;23.266;2022-08-21T21:16:28;93928.72;;;21.50;69.04
58879;BME280;44660;42.664;23.266;2022-08-21T21:18:59;93928.41;;;21.43;68.89
58879;BME280;44660;42.664;23.266;2022-08-21T21:21:42;93930.66;;;21.41;68.50
58879;BME280;44660;42.664;23.266;2022-08-21T21:24:17;93927.50;;;21.39;69.28
58879;BME280;44660;42.664;23.266;2022-08-21T21:29:15;93936.78;;;21.20;70.06
58879;BME280;44660;42.664;23.266;2022-08-21T21:31:43;93934.31;;;21.06;69.29
58879;BME280;44660;42.664;23.266;2022-08-21T21:34:09;93895.91;;;20.92;69.29
58879;BME280;44660;42.664;23.266;2022-08-21T21:37:28;93923.66;;;21.10;68.99
58879;BME280;44660;42.664;23.266;2022-08-21T21:58:39;93917.75;;;21.08;68.49
58879;BME280;44660;42.664;23.266;2022-08-21T22:01:14;93911.28;;;21.00;68.10
58879;BME280;44660;42.664;23.266;2022-08-21T22:04:00;93903.50;;;20.98;67.61
58879;BME280;44660;42.664;23.266;2022-08-21T22:14:19;93930.00;;;21.05;67.44
58879;BME280;44660;42.664;23.266;2022-08-21T22:16:48;93925.25;;;21.02;67.06
58879;BME280;44660;42.664;23.266;2022-08-21T22:19:26;93913.41;;;20.85;67.44
58879;BME280;44660;42.664;23.266;2022-08-21T22:22:11;93922.75;;;20.88;67.49
58879;BME280;44660;42.664;23.266;2022-08-21T22:24:41;93903.13;;;20.52;68.22
58879;BME280;44660;42.664;23.266;2022-08-21T22:27:23;93877.59;;;20.23;68.21
58879;BME280;44660;42.664;23.266;2022-08-21T22:29:55;93891.09;;;20.23;68.97
58879;BME280;44660;42.664;23.266;2022-08-21T22:32:28;93920.28;;;20.39;68.78
58879;BME280;44660;42.664;23.266;2022-08-21T22:37:44;93919.03;;;20.28;69.32
58879;BME280;44660;42.664;23.266;2022-08-21T22:40:19;93912.84;;;20.18;69.52
58879;BME280;44660;42.664;23.266;2022-08-21T22:45:24;93879.06;;;19.95;69.79
58879;BME280;44660;42.664;23.266;2022-08-21T22:47:51;93892.09;;;19.93;70.64
58879;BME280;44660;42.664;23.266;2022-08-21T22:50:21;93896.22;;;19.99;70.51
58879;BME280;44660;42.664;23.266;2022-08-21T22:52:59;93900.78;;;19.98;70.55
58879;BME280;44660;42.664;23.266;2022-08-21T22:55:40;93887.94;;;19.86;71.20
58879;BME280;44660;42.664;23.266;2022-08-21T22:58:12;93878.91;;;19.82;71.57
58879;BME280;44660;42.664;23.266;2022-08-21T23:05:51;93894.47;;;19.94;72.44
58879;BME280;44660;42.664;23.266;2022-08-21T23:11:06;93873.97;;;19.67;72.20
58879;BME280;44660;42.664;23.266;2022-08-21T23:13:43;93913.81;;;19.87;71.99
58879;BME280;44660;42.664;23.266;2022-08-21T23:21:58;93907.78;;;19.90;71.68
58879;BME280;44660;42.664;23.266;2022-08-21T23:27:46;93911.59;;;19.89;71.70
58879;BME280;44660;42.664;23.266;2022-08-21T23:30:21;93911.53;;;19.63;72.68
58879;BME280;44660;42.664;23.266;2022-08-21T23:33:29;93917.88;;;19.67;73.17
58879;BME280;44660;42.664;23.266;2022-08-21T23:36:15;93907.88;;;19.68;73.46
58879;BME280;44660;42.664;23.266;2022-08-21T23:42:17;93903.13;;;19.65;73.85
58879;BME280;44660;42.664;23.266;2022-08-21T23:50:17;93913.63;;;19.75;73.39
